Time;durP1;ratioP1;P1;durP2;ratioP2;P2;SDS_P1;SDS_P2;PMS_P1;PMS_P2;Temp;Humidity;BMP_temperature;BMP_pressure;BME280_temperature;BME280_humidity;BME280_pressure;Samples;Min_cycle;Max_cycle;Signal;HPM_P1;HPM_P2
2021/04/03 00:01:26;;;;;;;13.45;8.40;;;;;;;9.08;51.84;99766.00;5095561;28;20075;-70
2021/04/03 00:03:52;;;;;;;13.52;7.97;;;;;;;9.07;52.22;99774.94;5113579;28;20118;-70
2021/04/03 00:06:17;;;;;;;13.63;7.82;;;;;;;8.86;52.45;99749.63;5095747;28;20032;-70
2021/04/03 00:08:43;;;;;;;12.32;7.70;;;;;;;8.78;52.82;99735.91;5095581;28;20035;-71
2021/04/03 00:11:08;;;;;;;14.02;8.30;;;;;;;8.97;52.69;99768.44;5114311;28;20035;-71
2021/04/03 00:13:40;;;;;;;16.15;8.63;;;;;;;8.80;53.03;99742.88;5113682;28;20031;-71
2021/04/03 00:16:06;;;;;;;13.20;7.38;;;;;;;8.95;53.15;99761.50;5113837;28;20032;-71
2021/04/03 00:18:32;;;;;;;13.60;8.10;;;;;;;8.64;53.41;99712.84;5113360;28;20058;-71
2021/04/03 00:20:58;;;;;;;13.40;8.18;;;;;;;8.82;53.83;99753.41;5095540;28;20036;-71
2021/04/03 00:23:24;;;;;;;12.75;7.93;;;;;;;8.79;53.39;99754.47;5113721;28;20031;-71
2021/04/03 00:25:51;;;;;;;13.93;7.82;;;;;;;8.53;53.24;99716.16;5113391;28;20076;-71
2021/04/03 00:28:17;;;;;;;15.13;8.20;;;;;;;8.84;52.71;99751.53;5113598;28;20036;-71
2021/04/03 00:30:45;;;;;;;14.25;8.18;;;;;;;8.96;52.09;99766.72;5113202;28;20076;-70
2021/04/03 00:33:11;;;;;;;13.23;8.35;;;;;;;8.87;52.64;99759.31;5113671;28;20040;-70
2021/04/03 00:35:39;;;;;;;14.52;8.30;;;;;;;8.65;53.19;99750.91;5095501;28;20490;-71
2021/04/03 00:38:07;;;;;;;14.65;7.70;;;;;;;8.65;53.18;99757.09;5113393;28;20114;-71
2021/04/03 00:40:41;;;;;;;13.52;8.50;;;;;;;8.74;53.56;99787.59;5095511;28;20544;-70
2021/04/03 00:43:18;;;;;;;13.77;8.25;;;;;;;8.82;53.25;99774.69;5113449;28;20038;-69
2021/04/03 00:45:45;;;;;;;13.90;8.38;;;;;;;8.86;53.37;99785.03;5116804;28;20031;-69
2021/04/03 00:48:11;;;;;;;13.82;8.30;;;;;;;8.71;53.68;99787.78;5117867;28;20027;-69
2021/04/03 00:50:39;;;;;;;13.82;8.45;;;;;;;8.78;53.45;99800.63;5117486;28;20486;-69
2021/04/03 00:53:05;;;;;;;14.38;8.07;;;;;;;8.49;54.07;99777.56;5116707;28;20126;-69
2021/04/03 00:55:31;;;;;;;14.65;8.40;;;;;;;8.38;53.58;99740.97;5082440;28;20078;-69
2021/04/03 00:57:57;;;;;;;16.67;8.35;;;;;;;8.70;53.25;99776.28;5099190;28;20067;-69
2021/04/03 01:00:23;;;;;;;14.30;8.63;;;;;;;8.65;53.59;99782.81;5099085;28;20027;-69
2021/04/03 01:02:48;;;;;;;15.00;9.13;;;;;;;8.59;53.68;99784.06;5117200;28;20032;-68
2021/04/03 01:05:23;;;;;;;14.57;8.35;;;;;;;8.57;53.56;99781.47;5099191;28;20034;-68
2021/04/03 01:07:49;;;;;;;14.90;9.25;;;;;;;8.58;53.28;99777.84;5116936;28;20512;-68
2021/04/03 01:10:18;;;;;;;13.57;8.00;;;;;;;8.58;53.20;99796.47;5117656;28;20057;-68
2021/04/03 01:12:50;;;;;;;13.55;8.15;;;;;;;8.45;52.54;99765.41;5116772;28;20462;-70
2021/04/03 01:15:57;;;;;;;16.70;8.87;;;;;;;8.62;52.76;99772.38;5117443;28;20108;-68
2021/04/03 01:18:35;;;;;;;14.27;9.02;;;;;;;8.40;53.08;99765.69;5014301;28;20077;-68
2021/04/03 01:21:17;;;;;;;14.60;8.75;;;;;;;8.23;53.48;99750.69;5014277;28;20038;-70
2021/04/03 01:24:20;;;;;;;14.20;8.93;;;;;;;7.95;53.64;99689.50;5068093;28;20040;-69
2021/04/03 01:27:08;;;;;;;14.20;8.98;;;;;;;8.36;53.71;99763.28;5096176;28;20114;-70
2021/04/03 01:30:01;;;;;;;15.30;9.32;;;;;;;7.94;53.59;99685.13;5096693;28;20100;-68
2021/04/03 01:32:45;;;;;;;15.90;9.00;;;;;;;8.18;53.63;99710.22;5096540;28;20059;-69
2021/04/03 01:35:38;;;;;;;13.13;8.98;;;;;;;8.08;54.11;99716.19;5096836;28;20031;-69
2021/04/03 01:38:17;;;;;;;15.60;8.98;;;;;;;8.15;54.27;99726.38;5088341;28;20075;-68
2021/04/03 01:40:46;;;;;;;16.23;9.35;;;;;;;8.14;54.37;99729.13;5096238;28;20031;-68
2021/04/03 01:43:16;;;;;;;14.07;8.10;;;;;;;8.23;53.77;99744.53;5096347;28;20047;-69
2021/04/03 01:45:42;;;;;;;16.00;8.90;;;;;;;7.93;54.16;99710.84;5096351;28;20024;-69
2021/04/03 01:48:09;;;;;;;15.75;8.90;;;;;;;7.99;54.09;99738.81;5094716;28;20074;-69
2021/04/03 01:50:39;;;;;;;16.63;8.63;;;;;;;8.04;54.67;99771.28;5096311;28;20097;-71
2021/04/03 01:53:05;;;;;;;15.27;9.30;;;;;;;8.10;54.36;99780.69;5094560;28;20132;-72
2021/04/03 01:55:32;;;;;;;14.98;9.05;;;;;;;7.93;54.22;99750.66;5094947;28;20471;-71
2021/04/03 01:57:59;;;;;;;15.55;9.18;;;;;;;8.06;54.56;99773.84;5094262;28;20100;-73
2021/04/03 02:00:28;;;;;;;17.95;9.93;;;;;;;7.91;54.28;99756.97;5096171;28;20066;-73
2021/04/03 02:02:54;;;;;;;15.52;9.40;;;;;;;8.09;54.39;99776.31;5095664;28;20378;-73
2021/04/03 02:05:23;;;;;;;16.70;9.73;;;;;;;8.09;54.47;99757.72;5095940;28;20032;-72
2021/04/03 02:07:50;;;;;;;15.50;9.15;;;;;;;7.93;54.52;99737.38;5096024;28;20044;-71
2021/04/03 02:10:18;;;;;;;16.33;9.00;;;;;;;7.68;54.42;99683.97;5095853;28;20055;-73
2021/04/03 02:12:46;;;;;;;17.10;9.95;;;;;;;7.62;55.05;99710.84;5095737;28;20039;-72
2021/04/03 02:15:13;;;;;;;15.77;9.20;;;;;;;7.80;55.13;99723.06;5095723;28;20043;-70
2021/04/03 02:17:43;;;;;;;16.25;9.57;;;;;;;7.82;55.28;99725.69;5080899;28;20060;-72
2021/04/03 02:20:10;;;;;;;17.13;9.70;;;;;;;7.82;54.83;99723.88;5115694;28;20039;-71
2021/04/03 02:22:36;;;;;;;14.70;8.93;;;;;;;7.59;55.06;99703.94;5115853;28;20027;-70
2021/04/03 02:25:07;;;;;;;15.77;9.73;;;;;;;7.89;55.36;99756.22;5115674;28;20038;-71
2021/04/03 02:27:32;;;;;;;16.88;9.60;;;;;;;7.82;54.89;99726.53;5115841;28;20370;-70
2021/04/03 02:30:11;;;;;;;16.83;9.43;;;;;;;7.82;55.57;99739.81;5097422;28;20031;-70
2021/04/03 02:32:41;;;;;;;15.48;9.38;;;;;;;7.57;56.13;99715.56;5115751;28;20046;-70
2021/04/03 02:35:07;;;;;;;18.27;9.52;;;;;;;7.66;56.15;99723.88;5115787;28;20032;-70
2021/04/03 02:37:33;;;;;;;16.55;9.98;;;;;;;7.77;55.94;99731.22;5115354;28;20036;-70
2021/04/03 02:39:59;;;;;;;17.15;9.77;;;;;;;7.70;56.14;99737.81;5115382;28;20039;-71
2021/04/03 02:42:27;;;;;;;16.33;9.88;;;;;;;7.49;56.44;99707.19;5115718;28;20035;-69
2021/04/03 02:44:57;;;;;;;16.25;9.77;;;;;;;7.25;56.27;99675.78;5114957;28;20046;-71
2021/04/03 02:47:33;;;;;;;14.90;9.68;;;;;;;7.67;56.12;99743.31;5116903;28;20534;-69
2021/04/03 02:50:08;;;;;;;15.60;10.07;;;;;;;7.33;55.76;99673.53;5115789;28;20069;-68
2021/04/03 02:52:39;;;;;;;16.88;9.98;;;;;;;7.75;55.54;99739.28;5115572;28;20039;-68
2021/04/03 02:55:06;;;;;;;16.20;9.23;;;;;;;7.74;55.40;99723.44;5115169;28;20039;-69
2021/04/03 02:57:33;;;;;;;17.90;9.80;;;;;;;7.70;55.37;99721.91;5097125;28;20036;-71
2021/04/03 03:00:03;;;;;;;19.02;10.98;;;;;;;7.64;55.32;99719.59;5115046;28;20059;-71
2021/04/03 03:02:30;;;;;;;18.05;10.80;;;;;;;7.61;55.54;99725.06;5115570;28;20053;-70
2021/04/03 03:04:55;;;;;;;17.17;10.82;;;;;;;7.15;55.33;99656.88;5114986;28;20038;-70
2021/04/03 03:07:26;;;;;;;16.83;10.43;;;;;;;7.34;55.36;99685.88;5114631;28;20111;-70
2021/04/03 03:09:53;;;;;;;17.30;9.93;;;;;;;7.43;55.19;99695.09;5114784;28;20024;-72
2021/04/03 03:12:21;;;;;;;15.05;10.02;;;;;;;7.30;55.91;99700.25;5063544;28;20040;-70
2021/04/03 03:14:50;;;;;;;18.02;10.35;;;;;;;7.32;55.46;99703.66;5115099;28;20047;-71
2021/04/03 03:17:16;;;;;;;16.67;9.70;;;;;;;7.13;55.68;99700.31;5114514;28;20431;-71
2021/04/03 03:19:42;;;;;;;16.55;9.82;;;;;;;7.16;55.41;99708.13;5079635;28;20484;-71
2021/04/03 03:22:08;;;;;;;14.65;9.35;;;;;;;7.31;55.90;99778.91;5114261;28;20024;-70
2021/04/03 03:24:35;;;;;;;17.67;11.13;;;;;;;7.29;56.33;99775.47;5114485;28;20031;-71
2021/04/03 03:27:07;;;;;;;16.85;10.55;;;;;;;7.24;55.90;99748.34;5114707;28;20040;-73
2021/04/03 03:29:34;;;;;;;17.70;10.45;;;;;;;7.33;55.78;99763.75;5096346;28;20089;-71
2021/04/03 03:32:00;;;;;;;18.27;11.07;;;;;;;7.22;55.71;99752.84;5114407;28;20479;-71
2021/04/03 03:34:25;;;;;;;17.38;10.30;;;;;;;7.42;55.80;99783.63;5114532;28;20032;-72
2021/04/03 03:36:51;;;;;;;15.88;10.68;;;;;;;7.40;55.43;99775.75;5114583;28;20038;-68
2021/04/03 03:39:17;;;;;;;17.42;10.45;;;;;;;7.43;55.45;99769.41;5114274;28;20075;-69
2021/04/03 03:41:43;;;;;;;19.15;10.77;;;;;;;7.49;54.90;99771.72;5114591;28;20050;-69
2021/04/03 03:44:09;;;;;;;17.67;10.60;;;;;;;7.49;54.91;99770.88;5113890;28;20044;-69
2021/04/03 03:46:36;;;;;;;21.05;11.35;;;;;;;7.56;54.58;99775.78;5114101;28;20028;-68
2021/04/03 03:49:02;;;;;;;19.27;10.98;;;;;;;7.41;54.84;99744.75;5113784;28;20070;-69
2021/04/03 03:51:29;;;;;;;18.23;10.88;;;;;;;7.51;54.85;99766.34;5095816;28;20039;-69
2021/04/03 03:53:55;;;;;;;18.83;11.02;;;;;;;7.18;55.29;99722.16;5114348;28;20036;-69
2021/04/03 03:56:20;;;;;;;16.98;11.05;;;;;;;7.42;55.15;99757.94;5114440;28;20406;-69
2021/04/03 03:58:46;;;;;;;18.38;11.85;;;;;;;7.34;55.65;99749.56;5095884;28;20038;-70
2021/04/03 04:01:12;;;;;;;17.60;11.50;;;;;;;7.35;55.12;99743.31;5113762;28;20077;-69
2021/04/03 04:03:37;;;;;;;18.88;10.80;;;;;;;7.35;55.44;99745.13;5095905;28;20031;-69
2021/04/03 04:06:03;;;;;;;17.92;11.35;;;;;;;7.13;55.35;99713.56;5113852;28;20036;-69
2021/04/03 04:08:29;;;;;;;18.27;11.50;;;;;;;6.84;56.04;99702.75;5096115;28;20032;-69
2021/04/03 04:10:54;;;;;;;18.20;10.90;;;;;;;7.21;55.59;99751.16;5078833;28;20031;-69
2021/04/03 04:13:20;;;;;;;19.30;11.57;;;;;;;6.95;55.61;99709.25;5113708;28;20032;-67
2021/04/03 04:15:45;;;;;;;19.60;11.65;;;;;;;7.16;55.58;99740.81;5113687;28;20462;-68
2021/04/03 04:18:11;;;;;;;17.52;11.00;;;;;;;7.12;55.71;99733.09;5094880;28;20047;-68
2021/04/03 04:20:36;;;;;;;19.08;10.50;;;;;;;7.21;55.35;99737.03;5112949;28;20077;-68
2021/04/03 04:23:02;;;;;;;19.20;11.57;;;;;;;6.88;55.63;99714.06;5113527;28;20038;-69
2021/04/03 04:25:28;;;;;;;19.70;11.68;;;;;;;7.00;55.64;99739.06;5113500;28;20024;-68
2021/04/03 04:27:53;;;;;;;19.30;11.82;;;;;;;7.06;55.86;99757.31;5113722;28;20031;-68
2021/04/03 04:30:20;;;;;;;19.13;12.07;;;;;;;6.96;55.77;99769.34;5113484;28;20386;-68
2021/04/03 04:32:45;;;;;;;19.30;11.70;;;;;;;6.51;55.95;99700.09;5113419;28;20047;-69
2021/04/03 04:35:12;;;;;;;21.25;12.20;;;;;;;6.78;55.99;99749.94;5095204;28;20063;-69
2021/04/03 04:37:38;;;;;;;19.33;11.73;;;;;;;6.70;55.79;99730.94;5113949;28;20046;-68
2021/04/03 04:40:09;;;;;;;20.35;12.45;;;;;;;6.67;55.99;99747.00;5113379;28;20039;-67
2021/04/03 04:42:37;;;;;;;17.38;10.75;;;;;;;6.84;55.78;99787.56;5113101;28;20039;-67
2021/04/03 04:45:03;;;;;;;21.35;11.95;;;;;;;6.84;56.01;99803.47;5113019;28;20479;-69
2021/04/03 04:47:29;;;;;;;21.23;12.00;;;;;;;6.70;55.78;99783.94;5113419;28;20059;-69
2021/04/03 04:49:54;;;;;;;19.73;12.00;;;;;;;6.76;55.90;99800.41;5113233;28;20562;-68
2021/04/03 04:52:20;;;;;;;22.42;12.80;;;;;;;6.71;56.18;99794.47;5094939;28;20032;-69
2021/04/03 04:54:45;;;;;;;20.73;11.35;;;;;;;6.79;56.31;99808.19;5095682;28;20063;-70
2021/04/03 04:57:11;;;;;;;20.98;12.90;;;;;;;6.70;55.75;99790.09;5077902;28;20043;-69
2021/04/03 04:59:37;;;;;;;20.15;12.05;;;;;;;6.69;55.95;99782.22;5113166;28;20065;-70
2021/04/03 05:02:02;;;;;;;19.58;12.07;;;;;;;6.89;55.59;99806.78;5112930;28;20054;-70
2021/04/03 05:04:28;;;;;;;20.20;11.68;;;;;;;7.00;55.09;99808.00;5112889;28;20031;-68
2021/04/03 05:06:53;;;;;;;21.25;12.30;;;;;;;6.84;55.36;99790.22;5094984;28;20035;-69
2021/04/03 05:09:19;;;;;;;21.27;12.63;;;;;;;6.97;55.24;99818.78;5112971;28;20140;-69
2021/04/03 05:11:44;;;;;;;19.83;12.55;;;;;;;6.93;55.55;99811.91;5113269;28;20043;-69
2021/04/03 05:14:10;;;;;;;19.60;11.75;;;;;;;6.73;55.69;99789.94;5112700;28;20028;-68
2021/04/03 05:16:35;;;;;;;20.35;12.43;;;;;;;6.97;55.69;99822.28;5113243;28;20106;-68
2021/04/03 05:19:01;;;;;;;20.58;12.70;;;;;;;6.89;55.46;99800.59;5113332;28;20134;-72
2021/04/03 05:21:27;;;;;;;20.25;12.52;;;;;;;7.17;55.29;99826.53;5113130;28;20089;-68
2021/04/03 05:23:55;;;;;;;21.08;12.48;;;;;;;6.96;55.38;99823.22;5112984;28;20044;-69
2021/04/03 05:26:21;;;;;;;21.42;12.98;;;;;;;7.05;55.66;99835.16;5112538;28;20039;-69
2021/04/03 05:28:46;;;;;;;22.17;13.38;;;;;;;6.97;55.71;99810.81;5095275;28;20027;-69
2021/04/03 05:31:12;;;;;;;21.85;13.38;;;;;;;7.06;56.01;99842.16;5114729;28;20466;-70
2021/04/03 05:33:38;;;;;;;19.52;12.35;;;;;;;6.92;55.92;99816.34;5098275;28;20039;-70
2021/04/03 05:36:03;;;;;;;22.30;12.68;;;;;;;6.61;56.38;99777.31;5116252;28;20036;-72
2021/04/03 05:38:29;;;;;;;24.02;13.50;;;;;;;6.98;56.59;99847.00;5116512;28;20038;-71
2021/04/03 05:40:55;;;;;;;20.85;11.60;;;;;;;6.89;57.15;99853.63;5116791;28;20027;-70
2021/04/03 05:43:22;;;;;;;22.13;12.20;;;;;;;6.88;56.96;99831.56;5116383;28;20099;-70
2021/04/03 05:45:53;;;;;;;24.58;12.90;;;;;;;6.99;57.15;99838.97;5116340;28;20035;-70
2021/04/03 05:48:22;;;;;;;22.75;12.00;;;;;;;7.16;57.24;99859.31;5116477;28;20027;-70
2021/04/03 05:50:50;;;;;;;24.15;13.27;;;;;;;7.27;57.06;99859.59;5116412;28;20040;-70
2021/04/03 05:53:16;;;;;;;21.77;12.88;;;;;;;7.34;57.10;99865.44;5116418;28;20063;-70
2021/04/03 05:55:41;;;;;;;22.05;12.40;;;;;;;7.30;56.97;99834.69;5116377;28;20062;-69
2021/04/03 05:58:07;;;;;;;22.83;13.23;;;;;;;7.40;56.97;99852.69;5116165;28;20031;-69
2021/04/03 06:00:32;;;;;;;21.88;12.65;;;;;;;7.44;57.04;99845.44;5117035;28;20486;-69
2021/04/03 06:02:58;;;;;;;22.15;12.43;;;;;;;7.13;57.03;99793.13;5117264;28;20035;-69
2021/04/03 06:05:23;;;;;;;20.67;12.60;;;;;;;7.54;56.92;99859.06;5116763;28;20522;-69
2021/04/03 06:07:49;;;;;;;25.98;13.60;;;;;;;7.37;57.09;99852.88;5098207;28;20371;-69
2021/04/03 06:10:14;;;;;;;23.33;13.60;;;;;;;7.60;57.03;99861.38;5097570;28;20406;-71
2021/04/03 06:12:45;;;;;;;21.90;12.55;;;;;;;7.28;56.83;99797.63;5097713;28;20406;-70
2021/04/03 06:15:13;;;;;;;21.77;12.80;;;;;;;7.82;55.87;99872.56;5115427;28;20036;-70
2021/04/03 06:17:38;;;;;;;26.88;13.98;;;;;;;7.58;56.20;99834.06;5115703;28;20060;-70
2021/04/03 06:20:05;;;;;;;23.02;13.57;;;;;;;7.66;56.03;99834.50;5097913;28;20055;-70
2021/04/03 06:22:50;;;;;;;21.90;10.93;;;;;;;7.60;56.55;99870.19;5080490;28;20035;-69
2021/04/03 06:25:16;;;;;;;23.42;13.30;;;;;;;7.66;56.63;99863.72;5114804;28;20046;-70
2021/04/03 06:27:42;;;;;;;23.60;13.52;;;;;;;7.59;56.47;99879.09;5097667;28;20436;-70
2021/04/03 06:30:14;;;;;;;23.80;13.25;;;;;;;7.45;57.17;99874.56;5115480;28;20040;-75
2021/04/03 06:32:42;;;;;;;23.38;13.07;;;;;;;7.57;56.81;99872.16;5115758;28;20118;-71
2021/04/03 06:35:08;;;;;;;24.10;13.43;;;;;;;7.51;56.94;99872.50;5116031;28;20497;-78
2021/04/03 06:37:35;;;;;;;25.05;14.85;;;;;;;7.68;56.42;99873.31;5115880;28;20039;-71
2021/04/03 06:40:10;;;;;;;25.33;14.18;;;;;;;7.78;56.12;99881.63;5115657;28;20035;-71
2021/04/03 06:42:39;;;;;;;24.65;15.05;;;;;;;7.94;55.82;99873.69;5114715;28;20024;-71
2021/04/03 06:45:24;;;;;;;26.60;14.02;;;;;;;8.36;54.44;99870.44;5115668;28;20035;-71
2021/04/03 06:47:52;;;;;;;21.90;13.15;;;;;;;8.04;54.24;99829.72;5114500;28;20031;-71
2021/04/03 06:50:19;;;;;;;25.20;14.68;;;;;;;7.81;54.42;99819.53;5117825;28;20036;-73
2021/04/03 06:52:45;;;;;;;24.73;13.82;;;;;;;8.20;53.49;99861.56;5115732;28;20036;-72
2021/04/03 06:55:13;;;;;;;23.95;14.63;;;;;;;7.94;53.81;99817.91;5115206;28;20034;-70
2021/04/03 06:57:44;;;;;;;26.45;13.43;;;;;;;8.13;53.99;99878.84;5115253;28;20035;-66
2021/04/03 07:00:11;;;;;;;26.77;15.73;;;;;;;8.32;53.27;99855.59;5097221;28;20036;-72
2021/04/03 07:02:58;;;;;;;24.25;13.82;;;;;;;8.54;53.13;99881.81;5114829;28;20036;-67
2021/04/03 07:05:25;;;;;;;25.13;14.50;;;;;;;8.16;52.93;99807.78;5114803;28;20066;-68
2021/04/03 07:07:54;;;;;;;23.95;13.75;;;;;;;8.70;52.29;99887.97;5115224;28;20043;-69
2021/04/03 07:10:20;;;;;;;25.50;15.02;;;;;;;8.66;52.86;99896.19;5114725;28;20039;-65
2021/04/03 07:12:47;;;;;;;26.30;14.65;;;;;;;8.56;52.59;99864.81;5115098;28;20034;-68
2021/04/03 07:15:13;;;;;;;27.02;14.70;;;;;;;8.37;51.90;99820.78;5114274;28;20036;-69
2021/04/03 07:17:43;;;;;;;27.08;14.60;;;;;;;8.93;51.35;99899.91;5114763;28;20126;-69
2021/04/03 07:20:11;;;;;;;24.88;13.73;;;;;;;8.81;50.96;99863.41;5096763;28;20131;-69
2021/04/03 07:22:39;;;;;;;26.83;15.27;;;;;;;9.27;51.04;99888.13;5114685;28;20047;-67
2021/04/03 07:25:08;;;;;;;26.00;13.90;;;;;;;9.13;49.94;99870.31;5096666;28;20063;-66
2021/04/03 07:27:37;;;;;;;25.10;14.98;;;;;;;9.05;50.53;99856.63;5114512;28;20491;-66
2021/04/03 07:30:03;;;;;;;23.75;13.82;;;;;;;9.24;50.58;99898.09;5114767;28;20019;-70
2021/04/03 07:32:44;;;;;;;23.77;14.23;;;;;;;9.38;49.99;99904.28;5114326;28;20040;-72
2021/04/03 07:35:21;;;;;;;25.55;14.05;;;;;;;9.36;49.98;99870.72;5114588;28;20030;-68
2021/04/03 07:37:48;;;;;;;26.50;15.13;;;;;;;9.18;49.57;99824.81;5114789;28;20042;-73
2021/04/03 07:40:35;;;;;;;25.45;14.40;;;;;;;9.22;49.33;99836.13;5096015;28;20088;-74
2021/04/03 07:43:02;;;;;;;21.95;12.25;;;;;;;9.32;49.22;99880.72;5114098;28;20378;-73
2021/04/03 07:45:30;;;;;;;26.52;14.05;;;;;;;9.29;49.49;99899.53;5111636;28;20036;-73
2021/04/03 07:47:57;;;;;;;27.92;14.43;;;;;;;9.32;49.52;99885.16;5112346;28;21118;-74
2021/04/03 07:50:47;;;;;;;23.17;14.25;;;;;;;9.55;49.25;99910.38;5095298;28;20131;-73
2021/04/03 07:53:13;;;;;;;23.55;13.80;;;;;;;9.22;49.76;99879.56;5113227;28;20039;-72
2021/04/03 07:55:41;;;;;;;21.77;12.88;;;;;;;9.44;49.55;99916.34;5113228;28;20359;-72
2021/04/03 07:58:19;;;;;;;27.48;14.13;;;;;;;9.33;50.23;99919.69;5112979;28;20072;-71
2021/04/03 08:00:49;;;;;;;22.85;13.45;;;;;;;9.44;50.03;99916.34;5112889;28;20106;-72
2021/04/03 08:03:26;;;;;;;26.30;13.38;;;;;;;9.42;49.96;99911.13;5095003;28;20089;-70
2021/04/03 08:06:05;;;;;;;23.38;13.18;;;;;;;9.59;49.81;99920.75;5078514;28;20036;-79
2021/04/03 08:08:33;;;;;;;20.90;12.77;;;;;;;9.29;50.10;99854.28;5112865;28;20122;-71
2021/04/03 08:11:15;;;;;;;21.45;13.60;;;;;;;9.83;49.70;99920.19;5112496;28;20393;-73
2021/04/03 08:13:50;;;;;;;20.38;12.50;;;;;;;9.62;49.94;99867.31;5095038;28;20032;-74
2021/04/03 08:16:18;;;;;;;20.27;10.77;;;;;;;9.87;49.82;99903.06;5110041;28;20043;-74
2021/04/03 08:18:46;;;;;;;24.10;13.40;;;;;;;9.82;49.22;99905.16;5111698;28;20083;-73
2021/04/03 08:21:12;;;;;;;21.88;13.23;;;;;;;10.11;48.87;99909.50;5112875;28;20580;-72
2021/04/03 08:23:41;;;;;;;20.40;11.38;;;;;;;10.03;48.65;99896.66;5112980;28;20038;-71
2021/04/03 08:26:09;;;;;;;24.13;13.80;;;;;;;10.13;48.58;99901.41;5116437;28;20076;-71
2021/04/03 08:28:35;;;;;;;24.83;13.25;;;;;;;10.27;48.42;99912.94;5113490;28;20028;-77
2021/04/03 08:31:25;;;;;;;22.95;14.48;;;;;;;10.17;47.87;99910.94;5095590;28;20039;-75
2021/04/03 08:33:58;;;;;;;22.38;13.63;;;;;;;10.41;46.75;99911.19;5113531;28;20031;-72
2021/04/03 08:36:26;;;;;;;17.83;9.47;;;;;;;10.37;46.36;99907.88;5095591;28;20032;-74
2021/04/03 08:38:53;;;;;;;11.90;6.95;;;;;;;10.28;46.70;99914.66;5113833;28;20035;-76
2021/04/03 08:41:21;;;;;;;27.98;14.60;;;;;;;10.35;46.52;99911.59;5113107;28;20118;-72
2021/04/03 08:43:47;;;;;;;22.65;13.35;;;;;;;10.60;45.97;99919.69;5095333;28;20107;-73
2021/04/03 08:46:14;;;;;;;22.00;12.85;;;;;;;10.45;45.82;99888.72;5112306;28;20050;-71
2021/04/03 08:48:44;;;;;;;23.45;14.48;;;;;;;10.69;43.93;99891.56;5111777;28;20035;-78
2021/04/03 08:51:11;;;;;;;24.88;12.85;;;;;;;10.62;42.76;99898.28;5089897;28;20119;-71
2021/04/03 08:53:42;;;;;;;26.17;14.73;;;;;;;10.61;42.32;99924.06;5092595;28;20629;-73
2021/04/03 08:56:17;;;;;;;26.17;13.88;;;;;;;10.50;42.21;99897.25;5092098;28;20032;-72
2021/04/03 08:58:43;;;;;;;24.45;13.30;;;;;;;10.67;42.90;99907.69;5101733;28;20039;-71
2021/04/03 09:01:09;;;;;;;22.73;13.63;;;;;;;10.62;42.70;99896.47;5094737;28;20197;-75
2021/04/03 09:03:36;;;;;;;39.72;19.05;;;;;;;10.99;42.25;99931.34;5113374;28;20099;-72
2021/04/03 09:06:06;;;;;;;23.38;12.50;;;;;;;10.96;42.19;99915.56;5115570;28;20037;-72
2021/04/03 09:08:32;;;;;;;18.55;12.18;;;;;;;11.16;41.66;99913.25;5117284;28;20019;-71
2021/04/03 09:11:00;;;;;;;19.75;12.57;;;;;;;11.29;41.29;99918.63;5117377;28;20051;-71
2021/04/03 09:13:36;;;;;;;16.77;9.75;;;;;;;10.98;42.91;99913.63;5117141;28;20036;-83
2021/04/03 09:16:13;;;;;;;17.67;10.77;;;;;;;10.54;43.20;99862.31;5117519;28;20394;-72
2021/04/03 09:18:40;;;;;;;19.30;12.27;;;;;;;10.71;43.10;99858.53;5116915;28;20093;-71
2021/04/03 09:21:06;;;;;;;18.55;12.35;;;;;;;11.35;43.05;99904.84;5117152;28;20125;-71
2021/04/03 09:23:40;;;;;;;20.55;11.52;;;;;;;11.13;41.38;99917.97;5098406;28;20546;-72
2021/04/03 09:26:06;;;;;;;20.38;11.18;;;;;;;10.64;41.23;99835.88;5117117;28;20108;-72
2021/04/03 09:28:49;;;;;;;16.83;10.45;;;;;;;11.29;42.46;99913.28;5116656;28;20066;-73
2021/04/03 09:31:15;;;;;;;;;;;;;;;11.26;45.77;99907.28;5099102;28;20111;-72
2021/04/03 09:33:48;;;;;;;15.00;8.43;;;;;;;10.89;46.75;99897.28;5116773;28;20369;-72
2021/04/03 09:36:16;;;;;;;14.57;8.45;;;;;;;11.28;47.03;99906.22;5117033;28;20034;-72
2021/04/03 09:38:42;;;;;;;10.43;6.03;;;;;;;11.25;45.57;99879.75;5116633;28;20032;-72
2021/04/03 09:41:24;;;;;;;16.20;10.27;;;;;;;11.30;45.94;99928.34;5116952;28;20044;-72
2021/04/03 09:43:51;;;;;;;14.77;7.80;;;;;;;11.54;45.88;99909.78;5097746;28;20047;-73
2021/04/03 09:46:16;;;;;;;17.38;8.55;;;;;;;11.47;45.57;99920.00;5116875;28;20493;-72
2021/04/03 09:48:42;;;;;;;15.23;9.02;;;;;;;11.18;44.90;99915.81;5098297;28;20035;-73
2021/04/03 09:51:09;;;;;;;14.63;8.80;;;;;;;11.36;44.96;99921.72;5108756;28;20103;-72
2021/04/03 09:53:34;;;;;;;15.73;8.75;;;;;;;11.37;44.55;99916.28;5103259;28;20046;-72
2021/04/03 09:56:00;;;;;;;13.48;8.15;;;;;;;11.36;44.34;99924.38;5117261;28;20441;-72
2021/04/03 09:58:25;;;;;;;15.55;8.38;;;;;;;11.39;43.71;99930.41;5098625;28;20039;-72
2021/04/03 10:00:52;;;;;;;13.13;8.05;;;;;;;11.16;43.82;99913.25;5098180;28;20035;-72
2021/04/03 10:03:18;;;;;;;14.18;8.40;;;;;;;11.33;43.95;99940.63;5116291;28;20039;-72
2021/04/03 10:05:43;;;;;;;14.98;9.15;;;;;;;11.43;43.71;99894.50;5115858;28;20039;-73
2021/04/03 10:08:09;;;;;;;12.60;6.75;;;;;;;11.60;43.92;99916.50;5116401;28;20066;-72
2021/04/03 10:10:34;;;;;;;13.23;8.63;;;;;;;11.43;44.47;99923.88;5116140;28;20035;-72
2021/04/03 10:13:00;;;;;;;14.27;8.45;;;;;;;11.39;44.11;99877.00;5115943;28;20397;-71
2021/04/03 10:15:25;;;;;;;8.35;5.40;;;;;;;11.24;43.82;99888.72;5116318;28;20032;-73
2021/04/03 10:17:51;;;;;;;12.15;6.50;;;;;;;11.39;43.55;99925.06;5096394;28;20379;-73
2021/04/03 10:20:18;;;;;;;9.32;5.10;;;;;;;11.14;43.50;99912.50;5116157;28;20515;-73
2021/04/03 10:22:44;;;;;;;8.15;4.63;;;;;;;11.12;41.71;99916.25;5115864;28;20461;-72
2021/04/03 10:25:11;;;;;;;8.55;4.78;;;;;;;11.04;44.62;99950.59;5116001;28;20038;-72
2021/04/03 10:27:36;;;;;;;10.98;6.30;;;;;;;11.05;44.44;99909.59;5080483;28;20084;-71
2021/04/03 10:30:03;;;;;;;12.48;7.05;;;;;;;11.28;44.77;99956.94;5115847;28;20057;-73
2021/04/03 10:32:29;;;;;;;6.47;4.13;;;;;;;10.63;43.92;99892.84;5115771;28;20032;-72
2021/04/03 10:34:54;;;;;;;7.88;4.35;;;;;;;10.67;44.30;99921.00;5097468;28;20072;-72
2021/04/03 10:37:20;;;;;;;7.70;3.92;;;;;;;10.90;44.01;99954.16;5115646;28;20028;-72
2021/04/03 10:39:45;;;;;;;12.40;5.32;;;;;;;10.60;44.40;99885.03;5115599;28;20459;-72
2021/04/03 10:42:13;;;;;;;9.93;4.20;;;;;;;10.81;44.70;99950.31;5080503;28;20378;-71
2021/04/03 10:44:38;;;;;;;7.22;4.40;;;;;;;10.68;44.57;99959.22;5097281;28;20036;-73
2021/04/03 10:47:04;;;;;;;8.55;4.50;;;;;;;10.34;44.66;99936.56;5115832;28;20039;-72
2021/04/03 10:49:30;;;;;;;7.95;4.35;;;;;;;10.69;44.80;99924.44;5115338;28;20036;-72
2021/04/03 10:51:55;;;;;;;7.00;3.55;;;;;;;10.79;43.37;99932.69;5115237;28;20036;-72
2021/04/03 10:54:21;;;;;;;7.20;3.25;;;;;;;10.63;44.61;99948.00;5115115;28;20027;-72
2021/04/03 10:56:47;;;;;;;6.28;3.38;;;;;;;10.69;45.01;99956.44;5115005;28;20036;-72
2021/04/03 10:59:13;;;;;;;5.90;2.85;;;;;;;10.73;42.11;99941.97;5115289;28;20039;-72
2021/04/03 11:01:39;;;;;;;4.90;2.28;;;;;;;10.48;39.25;99931.19;5115036;28;20084;-75
2021/04/03 11:04:04;;;;;;;7.35;2.90;;;;;;;10.53;39.06;99967.28;5115479;28;20036;-77
2021/04/03 11:06:29;;;;;;;7.30;3.10;;;;;;;10.61;38.00;99942.75;5115087;28;20039;-76
2021/04/03 11:08:55;;;;;;;4.47;2.30;;;;;;;10.81;38.69;99928.13;5114947;28;20037;-75
2021/04/03 11:11:20;;;;;;;4.35;2.55;;;;;;;10.89;38.47;99950.66;5114720;28;20059;-74
2021/04/03 11:13:46;;;;;;;8.30;2.63;;;;;;;10.83;38.43;99911.06;5096435;28;20042;-75
2021/04/03 11:16:11;;;;;;;6.43;2.95;;;;;;;10.38;38.99;99884.72;5115057;28;20067;-75
2021/04/03 11:18:37;;;;;;;6.03;3.33;;;;;;;10.73;37.88;99927.78;5114376;28;20055;-79
2021/04/03 11:21:02;;;;;;;4.90;1.90;;;;;;;10.64;36.98;99915.03;5114720;28;20035;-75
2021/04/03 11:23:28;;;;;;;7.40;2.70;;;;;;;10.83;34.62;99937.72;5096757;28;20110;-76
2021/04/03 11:25:53;;;;;;;7.20;2.95;;;;;;;10.69;35.14;99884.41;5096364;28;20027;-77
2021/04/03 11:28:19;;;;;;;4.82;2.20;;;;;;;10.84;35.46;99883.41;5114513;28;20042;-75
2021/04/03 11:30:44;;;;;;;4.80;2.72;;;;;;;10.84;36.49;99925.25;5114575;28;20032;-75
2021/04/03 11:33:10;;;;;;;5.78;2.53;;;;;;;10.55;36.49;99865.81;5096425;28;20046;-76